Terminal Aerodrome Forecast
Issued by NWS

Home | Current Version | Previous Version | Text Only | Print | Product List | Glossary On
Versions: 1 2 3 4 5 6 7 8 9 10 11 12 13 14 15 16 17 18 19
000
FTPA31 PHFO 202300
TAFJHM
TAF
PHJH 202333Z 2100/2124 06016G28KT P6SM FEW020 BKN045
     FM210500 06011KT P6SM FEW020 SCT045
     FM212000 06013G22KT P6SM FEW020 SCT045
      AMD NOT SKED AFT 210400=

USA.gov is the U.S. government's official web portal to all federal, state and local government web resources and services.